Flight Track Log - Related Links

Times and Time Zones

All times are in EDT time to prevent confusion due to time zone crossing. See the SWA35 flight status page for this flight to view local times or setup timezone preferences in your user account.

Time Position Orientation Groundspeed Altitude Reporting Facility
EDT Latitude Longitude Course Direction KTS MPH feet Rate Location/Type
Wed 07:37:42 AM 40.6458 -74.1736 270° West 170 196 1,500  Level New York Center
Wed 07:38:41 AM 40.6272 -74.2436 251° West 259 298 5,300 3,882 Climbing New York Center
Wed 07:39:41 AM 40.6225 -74.3336 266° West 268 308 9,200 3,669 Climbing New York Center
Wed 07:40:42 AM 40.6117 -74.4150 260° West 263 303 12,700 2,361 Climbing New York Center
Wed 07:41:43 AM 40.6483 -74.5100 297° West 255 293 14,000 655 Climbing New York Center
Wed 07:42:41 AM 40.7036 -74.6006 309° West 317 365 14,000 555 Level New York Center
Wed 07:43:00 AM 40.8667 -74.9824 270° West  Level FlightAware Approximate
Wed 07:43:42 AM 40.7536 -74.7294 297° West 358 412 15,100  Level New York Center
Wed 07:44:42 AM 40.7936 -74.8361 296° West 367 422 17,600 2,607 Climbing New York Center
Wed 07:45:44 AM 40.8378 -74.9483 298° West 356 410 20,400 2,924 Climbing New York Center
Wed 07:46:41 AM 40.8603 -75.0758 283° West 350 403 23,400 2,769 Climbing New York Center
Wed 07:47:41 AM 40.8383 -75.2144 258° West 363 418 25,800 2,200 Climbing New York Center
Wed 07:48:41 AM 40.8161 -75.3611 259° West 382 440 27,800 1,835 Climbing New York Center
Wed 07:49:42 AM 40.7897 -75.5044 256° West 393 452 29,500 1,650 Climbing New York Center
Wed 07:50:41 AM 40.7650 -75.6481 257° West 404 465 31,100 1,900 Climbing New York Center
Wed 07:51:42 AM 40.7400 -75.7969 258° West 410 472 33,300 2,083 Climbing New York Center
Wed 07:52:42 AM 40.7153 -75.9375 257° West 410 472 35,300 1,600 Climbing New York Center
Wed 07:53:42 AM 40.6925 -76.0781 258° West 405 466 36,500 1,210 Climbing New York Center
Wed 07:54:41 AM 40.6672 -76.2158 256° West 405 466 37,700 756 Climbing New York Center
Wed 07:55:41 AM 40.6797 -76.3536 277° West 382 440 38,000 149 Climbing New York Center
Wed 07:56:42 AM 40.6964 -76.4836 280° West 382 440 38,000  Level New York Center
Wed 07:57:43 AM 40.7108 -76.6161 278° West 376 433 38,000  Level New York Center
Wed 07:58:41 AM 40.7250 -76.7489 278° West 371 427 38,000  Level New York Center
Wed 07:59:42 AM 40.7367 -76.8842 277° West 371 427 38,000  Level New York Center
Wed 08:00:42 AM 40.7486 -77.0167 277° West 371 427 38,000  Level New York Center
Wed 08:01:43 AM 40.7644 -77.1497 279° West 371 427 38,000  Level New York Center
Wed 08:02:41 AM 40.7761 -77.2797 277° West 371 427 38,000  Level New York Center
Wed 08:03:41 AM 40.7878 -77.4097 277° West 371 427 38,000  Level New York Center
Wed 08:05:21 AM 40.8092 -77.6478 277° West 389 448 38,000  Level Cleveland Center
Wed 08:06:21 AM 40.8208 -77.7817 277° West 383 441 38,000  Level Cleveland Center
Wed 08:07:21 AM 40.8325 -77.9183 276° West 383 441 38,000  Level Cleveland Center
Wed 08:08:21 AM 40.8439 -78.0497 277° West 378 435 38,000  Level Cleveland Center
Wed 08:09:21 AM 40.8550 -78.1839 276° West 378 435 38,000  Level Cleveland Center
Wed 08:10:21 AM 40.8703 -78.3233 278° West 378 435 38,000  Level Cleveland Center
Wed 08:11:21 AM 40.8811 -78.4547 276° West 378 435 38,000  Level Cleveland Center
Wed 08:12:21 AM 40.8919 -78.5889 276° West 378 435 38,000  Level Cleveland Center
Wed 08:13:21 AM 40.9025 -78.7261 276° West 372 428 38,000  Level Cleveland Center
Wed 08:14:21 AM 40.9131 -78.8603 276° West 367 422 38,000  Level Cleveland Center
Wed 08:15:21 AM 40.9233 -78.9975 276° West 367 422 38,000  Level Cleveland Center
Wed 08:16:21 AM 40.9336 -79.1347 276° West 367 422 38,000  Level Cleveland Center
Wed 08:17:21 AM 40.9456 -79.2747 276° West 373 429 38,000  Level Cleveland Center
Wed 08:18:21 AM 40.9533 -79.4036 275° West 385 443 38,000  Level Cleveland Center
Wed 08:19:21 AM 40.9650 -79.5436 276° West 385 443 38,000  Level Cleveland Center
Wed 08:20:21 AM 40.9747 -79.6811 275° West 385 443 38,000  Level Cleveland Center
Wed 08:21:21 AM 40.9839 -79.8211 275° West 385 443 38,000  Level Cleveland Center
Wed 08:22:21 AM 40.9953 -79.9614 276° West 385 443 38,000  Level Cleveland Center
Wed 08:23:21 AM 41.0042 -80.1017 275° West 385 443 38,000  Level Cleveland Center
Wed 08:24:21 AM 41.0131 -80.2392 275° West 385 443 38,000  Level Cleveland Center
Wed 08:25:21 AM 41.0239 -80.3822 276° West 385 443 38,000  Level Cleveland Center
Wed 08:26:21 AM 41.0322 -80.5225 275° West 385 443 38,000  Level Cleveland Center
Wed 08:27:21 AM 41.0406 -80.6631 275° West 385 443 38,000  Level Cleveland Center
Wed 08:28:21 AM 41.0508 -80.8033 276° West 385 443 38,000  Level Cleveland Center
Wed 08:29:21 AM 41.0589 -80.9439 274° West 385 443 38,000  Level Cleveland Center
Wed 08:30:21 AM 41.0667 -81.0869 274° West 390 449 38,000  Level Cleveland Center
Wed 08:31:21 AM 41.0742 -81.2303 274° West 390 449 38,000  Level Cleveland Center
Wed 08:32:21 AM 41.0839 -81.3736 275° West 385 443 38,000  Level Cleveland Center
Wed 08:33:21 AM 41.0931 -81.5172 275° West 385 443 38,000  Level Cleveland Center
Wed 08:34:21 AM 41.0981 -81.6578 273° West 385 443 38,000  Level Cleveland Center
Wed 08:35:21 AM 41.1072 -81.7983 275° West 385 443 38,000  Level Cleveland Center
Wed 08:36:21 AM 41.1139 -81.9392 274° West 385 443 38,000  Level Cleveland Center
Wed 08:37:21 AM 41.1225 -82.0797 275° West 385 443 38,000  Level Cleveland Center
Wed 08:38:21 AM 41.1244 -82.2369 271° West 390 449 38,000  Level Cleveland Center
Wed 08:39:21 AM 41.1306 -82.3833 273° West 390 449 38,000  Level Cleveland Center
Wed 08:40:21 AM 41.1367 -82.5242 273° West 390 449 38,000  Level Cleveland Center
Wed 08:41:21 AM 41.1447 -82.6678 274° West 385 443 38,000  Level Cleveland Center
Wed 08:42:21 AM 41.1503 -82.8139 273° West 391 450 38,000  Level Cleveland Center
Wed 08:43:21 AM 41.1578 -82.9578 274° West 391 450 38,000  Level Cleveland Center
Wed 08:44:21 AM 41.1631 -83.0986 273° West 391 450 38,000  Level Cleveland Center
Wed 08:45:21 AM 41.1681 -83.2450 273° West 391 450 38,000  Level Cleveland Center
Wed 08:46:21 AM 41.1731 -83.3886 273° West 391 450 38,000  Level Cleveland Center
Wed 08:47:21 AM 41.1797 -83.5325 274° West 391 450 38,000  Level Cleveland Center
Wed 08:48:21 AM 41.1842 -83.6789 272° West 391 450 38,000  Level Cleveland Center
Wed 08:49:21 AM 41.1908 -83.8200 274° West 391 450 38,000  Level Cleveland Center
Wed 08:51:08 AM 41.2019 -84.0731 273° West 391 450 38,000  Level Chicago Center
Wed 08:52:10 AM 41.2067 -84.2178 273° West 394 453 38,000  Level Chicago Center
Wed 08:53:12 AM 41.2122 -84.3617 273° West 391 450 38,000  Level Chicago Center
Wed 08:54:14 AM 41.2161 -84.5086 272° West 395 455 38,000  Level Chicago Center
Wed 08:55:16 AM 41.2203 -84.6550 272° West 398 458 38,000  Level Chicago Center
Wed 08:56:17 AM 41.2242 -84.8033 272° West 400 460 38,000  Level Chicago Center
Wed 08:57:19 AM 41.2278 -84.9803 272° West 399 459 38,000  Level Chicago Center
Wed 08:58:21 AM 41.2317 -85.1292 272° West 401 461 38,000  Level Chicago Center
Wed 08:59:23 AM 41.2344 -85.2781 271° West 402 463 38,000  Level Chicago Center
Wed 09:00:25 AM 41.2381 -85.4286 272° West 404 465 38,000  Level Chicago Center
Wed 09:01:28 AM 41.2411 -85.5808 272° West 408 470 38,000  Level Chicago Center
Wed 09:02:30 AM 41.2439 -85.7303 271° West 404 465 38,000  Level Chicago Center
Wed 09:03:32 AM 41.2467 -85.8761 271° West 403 464 38,000  Level Chicago Center
Wed 09:04:33 AM 41.2492 -86.0306 271° West 406 467 38,000  Level Chicago Center
Wed 09:05:35 AM 41.2519 -86.2103 271° West 404 465 38,000  Level Chicago Center
Wed 09:06:37 AM 41.2547 -86.3606 271° West 407 468 38,000  Level Chicago Center
Wed 09:07:39 AM 41.2561 -86.5100 271° West 405 466 38,000  Level Chicago Center
Wed 09:08:40 AM 41.2575 -86.6592 271° West 403 464 38,000  Level Chicago Center
Wed 09:09:42 AM 41.2589 -86.8236 271° West 408 470 38,000  Level Chicago Center
Wed 09:10:44 AM 41.2606 -86.9744 271° West 409 471 38,000 145 Level Chicago Center
Wed 09:11:46 AM 41.2611 -87.1242 270° West 409 471 38,300 871 Climbing Chicago Center
Wed 09:12:48 AM 41.2625 -87.2739 271° West 407 468 39,800 823 Climbing Chicago Center
Wed 09:13:50 AM 41.2625 -87.4214 270° West 403 464 40,000 97 Climbing Chicago Center
Wed 09:14:52 AM 41.2639 -87.6033 271° West 411 473 40,000  Level Chicago Center
Wed 09:15:54 AM 41.2650 -87.7544 271° West 412 474 40,000  Level Chicago Center
Wed 09:16:56 AM 41.2639 -87.9058 269° West 411 473 40,000  Level Chicago Center
Wed 09:17:58 AM 41.2633 -88.0597 270° West 412 474 40,000  Level Chicago Center
Wed 09:19:00 AM 41.2636 -88.2139 270° West 412 474 40,000  Level Chicago Center
Wed 09:20:02 AM 41.2633 -88.3656 270° West 410 472 40,000  Level Chicago Center
Wed 09:21:04 AM 41.2625 -88.5144 270° West 406 467 40,000  Level Chicago Center
Wed 09:22:05 AM 41.2611 -88.6942 269° West 407 468 40,000  Level Chicago Center
Wed 09:23:07 AM 41.2603 -88.8458 270° West 411 473 40,000  Level Chicago Center
Wed 09:24:09 AM 41.2592 -88.9981 269° West 413 475 40,000  Level Chicago Center
Wed 09:25:12 AM 41.2581 -89.1497 269° West 414 476 40,000  Level Chicago Center
Wed 09:26:14 AM 41.2561 -89.3181 269° West 415 478 40,000  Level Chicago Center
Wed 09:27:16 AM 41.2539 -89.4722 269° West 418 481 40,000  Level Chicago Center
Wed 09:28:18 AM 41.2522 -89.6247 269° West 417 480 40,000  Level Chicago Center
Wed 09:29:20 AM 41.2503 -89.7775 269° West 416 479 40,000  Level Chicago Center
Wed 09:30:22 AM 41.2481 -89.9314 269° West 420 483 40,000  Level Chicago Center
Wed 09:31:24 AM 41.2442 -90.1172 268° West 422 486 40,000  Level Chicago Center
Wed 09:32:26 AM 41.2419 -90.2703 269° West 418 481 40,000  Level Chicago Center
Wed 09:33:28 AM 41.2381 -90.4275 268° West 426 490 40,000  Level Chicago Center
Wed 09:34:30 AM 41.2333 -90.5842 268° West 426 490 40,000  Level Chicago Center
Wed 09:35:32 AM 41.2300 -90.7383 268° West 423 487 40,000  Level Chicago Center
Wed 09:36:34 AM 41.2261 -90.9244 268° West 423 487 40,000  Level Chicago Center
Wed 09:37:36 AM 41.2217 -91.0803 268° West 422 486 40,000  Level Chicago Center
Wed 09:38:38 AM 41.2164 -91.2369 267° West 424 488 40,000  Level Chicago Center
Wed 09:39:40 AM 41.2114 -91.3947 268° West 429 494 40,000  Level Chicago Center
Wed 09:40:43 AM 41.2069 -91.5519 268° West 428 493 40,000  Level Chicago Center
Wed 09:41:45 AM 41.2017 -91.7128 268° West 427 491 40,000  Level Chicago Center
Wed 09:42:47 AM 41.1944 -91.8978 267° West 425 489 40,000  Level Chicago Center
Wed 09:43:49 AM 41.1897 -92.0519 268° West 423 487 40,000  Level Chicago Center
Wed 09:44:51 AM 41.1833 -92.2044 267° West 421 484 40,000  Level Chicago Center
Wed 09:45:53 AM 41.1783 -92.3600 268° West 423 487 40,000  Level Chicago Center
Wed 09:46:55 AM 41.1717 -92.5131 267° West 420 483 40,000  Level Chicago Center
Wed 09:47:53 AM 41.1658 -92.6681 267° West 424 488 40,000  Level Minneapolis Center
Wed 09:48:55 AM 41.1581 -92.8531 267° West 423 487 40,000  Level Minneapolis Center
Wed 09:49:57 AM 41.1511 -93.0072 267° West 424 488 40,000  Level Minneapolis Center
Wed 09:50:58 AM 41.1442 -93.1614 267° West 424 488 40,000  Level Minneapolis Center
Wed 09:52:00 AM 41.1386 -93.3125 267° West 419 482 40,000  Level Minneapolis Center
Wed 09:53:02 AM 41.1314 -93.4683 267° West 425 489 40,000  Level Minneapolis Center
Wed 09:54:03 AM 41.1217 -93.6278 265° West 431 496 40,000  Level Minneapolis Center
Wed 09:55:05 AM 41.1108 -93.8167 266° West 434 499 40,000  Level Minneapolis Center
Wed 09:56:07 AM 41.1017 -93.9717 266° West 432 497 40,000  Level Minneapolis Center
Wed 09:57:08 AM 41.0969 -94.1222 268° West 423 487 40,000  Level Minneapolis Center
Wed 09:58:10 AM 41.0889 -94.2781 266° West 426 490 40,000  Level Minneapolis Center
Wed 09:59:12 AM 41.0811 -94.4331 266° West 427 491 40,000 -49 Level Minneapolis Center
Wed 10:00:13 AM 41.0700 -94.5975 265° West 428 493 39,900  Descending Minneapolis Center
Wed 10:01:15 AM 41.0614 -94.7542 266° West 427 491 40,000 48 Climbing Minneapolis Center
Wed 10:02:17 AM 41.0486 -94.9425 265° West 428 493 40,000  Level Minneapolis Center
Wed 10:03:18 AM 41.0389 -95.1014 265° West 430 495 40,000  Level Minneapolis Center
Wed 10:04:20 AM 41.0289 -95.2611 265° West 433 498 40,000  Level Minneapolis Center
Wed 10:05:22 AM 41.0178 -95.4219 265° West 435 501 40,000  Level Minneapolis Center
Wed 10:06:23 AM 41.0061 -95.5822 265° West 436 502 40,000  Level Minneapolis Center
Wed 10:07:25 AM 40.9950 -95.7408 265° West 433 498 40,000  Level Minneapolis Center
Wed 10:08:26 AM 40.9839 -95.9033 265° West 436 502 40,000  Level Minneapolis Center
Wed 10:09:40 AM 40.9733 -96.0650 265° West 437 503 40,000  Level Minneapolis Center
Wed 10:10:42 AM 40.9594 -96.2589 265° West 438 504 40,000  Level Minneapolis Center
Wed 10:11:44 AM 40.9475 -96.4189 264° West 436 502 40,000  Level Minneapolis Center
Wed 10:12:45 AM 40.9328 -96.6108 264° West 435 501 40,000  Level Minneapolis Center
Wed 10:13:47 AM 40.9197 -96.7714 264° West 436 502 40,000  Level Minneapolis Center
Wed 10:14:49 AM 40.8897 -96.9250 256° West 434 499 40,000  Level Minneapolis Center
Wed 10:15:50 AM 40.8611 -97.0806 256° West 435 501 40,000  Level Minneapolis Center
Wed 10:16:52 AM 40.8333 -97.2364 257° West 435 501 40,000  Level Minneapolis Center
Wed 10:17:54 AM 40.8036 -97.3956 256° West 438 504 40,000  Level Minneapolis Center
Wed 10:18:55 AM 40.7733 -97.5511 256° West 438 504 40,000  Level Minneapolis Center
Wed 10:19:57 AM 40.7442 -97.7083 256° West 439 505 40,000  Level Minneapolis Center
Wed 10:21:11 AM 40.7139 -97.8653 256° West 440 506 40,000  Level Minneapolis Center
Wed 10:22:13 AM 40.6725 -98.0847 256° West 440 506 40,000  Level Minneapolis Center
Wed 10:23:15 AM 40.6406 -98.2411 255° West 440 506 40,000  Level Minneapolis Center
Wed 10:24:16 AM 40.6114 -98.3992 256° West 441 507 40,000  Level Minneapolis Center
Wed 10:25:18 AM 40.6164 -98.5586 272° West 438 504 40,000  Level Minneapolis Center
Wed 10:26:20 AM 40.6269 -98.6875 276° West 438 504 40,000  Level Minneapolis Center
Wed 10:27:22 AM 40.6447 -98.8783 277° West 436 502 40,000  Level Minneapolis Center
Wed 10:28:24 AM 40.6581 -99.0375 276° West 435 501 40,000  Level Minneapolis Center
Wed 10:29:25 AM 40.6717 -99.1975 276° West 435 501 40,000  Level Denver Center
Wed 10:29:26 AM 40.6717 -99.1975 276° West 436 502 40,000  Level Minneapolis Center
Wed 10:30:27 AM 40.6853 -99.3567 276° West 436 502 40,000  Level Denver Center
Wed 10:31:29 AM 40.7006 -99.5486 276° West 438 504 40,000  Level Denver Center
Wed 10:32:31 AM 40.7139 -99.7089 276° West 439 505 40,000  Level Denver Center
Wed 10:33:33 AM 40.7258 -99.8558 276° West 440 506 40,000  Level Denver Center
Wed 10:34:35 AM 40.7392 -100.0344 276° West 441 507 40,000  Level Denver Center
Wed 10:35:37 AM 40.7517 -100.1894 276° West 443 510 40,000  Level Denver Center
Wed 10:36:39 AM 40.7653 -100.3692 276° West 442 509 40,000  Level Denver Center
Wed 10:37:41 AM 40.7758 -100.5242 275° West 442 509 40,000  Level Denver Center
Wed 10:38:43 AM 40.7525 -100.7072 261° West 445 512 40,000  Level Denver Center
Wed 10:39:45 AM 40.7272 -100.8614 258° West 442 509 40,000  Level Denver Center
Wed 10:40:47 AM 40.7031 -101.0111 258° West 435 501 40,000  Level Denver Center
Wed 10:41:49 AM 40.6747 -101.1847 258° West 433 498 40,000  Level Denver Center
Wed 10:42:51 AM 40.6503 -101.3331 258° West 432 497 40,000  Level Denver Center
Wed 10:43:53 AM 40.6208 -101.5064 257° West 434 499 40,000  Level Denver Center
Wed 10:44:55 AM 40.5967 -101.6542 258° West 433 498 40,000  Level Denver Center
Wed 10:45:57 AM 40.5678 -101.8275 258° West 434 499 40,000  Level Denver Center
Wed 10:46:59 AM 40.5408 -101.9769 257° West 438 504 40,000  Level Denver Center
Wed 10:48:01 AM 40.5153 -102.1250 257° West 436 502 40,000  Level Denver Center
Wed 10:49:03 AM 40.4847 -102.2983 257° West 435 501 40,000  Level Denver Center
Wed 10:50:05 AM 40.4586 -102.4461 257° West 435 501 40,000 -581 Level Denver Center
Wed 10:51:07 AM 40.4281 -102.6167 257° West 430 495 38,800 -1,790 Descending Denver Center
Wed 10:52:09 AM 40.4022 -102.7578 257° West 417 480 36,300 -2,952 Descending Denver Center
Wed 10:53:11 AM 40.3719 -102.9267 257° West 425 489 32,700 -3,000 Descending Denver Center
Wed 10:54:13 AM 40.3453 -103.0742 257° West 432 497 30,100 -2,565 Descending Denver Center
Wed 10:55:15 AM 40.3153 -103.2375 257° West 424 488 27,400 -2,419 Descending Denver Center
Wed 10:56:17 AM 40.2897 -103.3775 257° West 416 479 25,100 -2,371 Descending Denver Center
Wed 10:57:19 AM 40.2594 -103.5344 256° West 402 463 22,500 -2,323 Descending Denver Center
Wed 10:58:21 AM 40.2347 -103.6681 256° West 398 458 20,300 -2,016 Descending Denver Center
Wed 10:59:24 AM 40.2058 -103.8208 256° West 378 435 18,300 -1,632 Descending Denver Center
Wed 11:00:26 AM 40.2097 -103.9433 272° West 344 396 16,900 -1,500 Descending Denver Center
Wed 11:01:28 AM 40.2200 -104.0611 277° West 329 379 15,200 -1,258 Descending Denver Center
Wed 11:02:30 AM 40.2303 -104.1767 277° West 304 350 14,300 -919 Descending Denver Center
Wed 11:03:32 AM 40.2389 -104.2714 277° West 269 310 13,300 -1,065 Descending Denver Center
Wed 11:04:34 AM 40.2486 -104.3711 277° West 260 299 12,100 -1,113 Descending Denver Center
Wed 11:05:36 AM 40.2283 -104.4589 253° West 255 293 11,000 -1,104 Descending Denver Center
Wed 11:06:39 AM 40.1917 -104.5417 240° Southwest 256 295 9,800 -1,056 Descending Denver Center
Wed 11:07:41 AM 40.1311 -104.5822 207° Southwest 247 284 8,800 -1,101 Descending Denver Center
Wed 11:08:28 AM 40.0833 -104.6167 209° Southwest 246 283 7,800 -1,161 Descending Denver TRACON
Wed 11:08:43 AM 40.0664 -104.6264 204° Southwest 245 282 7,600 -545 Descending Denver Center
Wed 11:09:45 AM 40.0092 -104.6656 208° Southwest 236 272 7,100 -581 Descending Denver Center
Wed 11:10:47 AM 39.9583 -104.6869 198° South 176 203 6,400 -629 Descending Denver Center
Wed 11:11:49 AM 39.9158 -104.6869 180° South 155 178 5,800 -532 Descending Denver Center
Wed 11:12:51 AM 39.8783 -104.6872 180° South 151 174 5,300 -484 Descending Denver Center
Wed 11:14:00 AM 39.8617 -104.6732 North  Level Estimated
Wed 11:21:00 AM 39.8617 -104.6732 North  Level Estimated
Wed 11:22:00 AM 39.8617 -104.6732 North  Level Estimated

Login

Don't have an account? Register now (free) for customized features, flight alerts, and more!